createdAt,value
2023-01-09T00:00:24.367Z,94.11
2023-01-09T00:02:50.831Z,94.32
2023-01-09T00:05:19.250Z,94.49
2023-01-09T00:07:45.981Z,93.96
2023-01-09T00:10:13.432Z,93.99
2023-01-09T00:12:39.831Z,94.09
2023-01-09T00:15:06.915Z,93.69
2023-01-09T00:17:33.628Z,93.65
2023-01-09T00:20:00.112Z,93.59
2023-01-09T00:22:26.623Z,93.77
2023-01-09T00:24:53.058Z,93.28
2023-01-09T00:27:19.597Z,93.27
2023-01-09T00:29:46.605Z,93.17
2023-01-09T00:32:12.977Z,93.52
2023-01-09T00:34:39.450Z,93.27
2023-01-09T00:37:11.916Z,93.12
2023-01-09T00:39:42.555Z,93.49
2023-01-09T00:42:14.828Z,94.07
2023-01-09T00:44:52.186Z,93.68
2023-01-09T00:47:35.435Z,94.17
2023-01-09T00:50:07.550Z,93.65
2023-01-09T00:52:37.639Z,94.55
2023-01-09T00:55:05.800Z,93.84
2023-01-09T00:57:32.243Z,93.08
2023-01-09T00:59:59.489Z,93.67
2023-01-09T01:02:26.125Z,93.15
2023-01-09T01:05:10.808Z,93.86
2023-01-09T01:07:40.059Z,93.94
2023-01-09T01:10:07.882Z,94.81
2023-01-09T01:12:34.378Z,94.74
2023-01-09T01:15:00.801Z,94.77
2023-01-09T01:17:27.300Z,95.33
2023-01-09T01:19:53.692Z,95.14
2023-01-09T01:22:20.100Z,95.69
2023-01-09T01:24:46.621Z,96.17
2023-01-09T01:27:13.016Z,95.68
2023-01-09T01:29:39.377Z,96.49
2023-01-09T01:32:05.780Z,96.16
2023-01-09T01:34:32.192Z,96.10
2023-01-09T01:36:58.578Z,95.85
2023-01-09T01:39:24.990Z,95.86
2023-01-09T01:41:51.514Z,96.11
2023-01-09T01:44:55.894Z,95.86
2023-01-09T01:47:25.762Z,95.86
2023-01-09T01:49:52.579Z,96.03
2023-01-09T01:52:20.455Z,95.33
2023-01-09T01:54:47.570Z,95.67
2023-01-09T01:57:14.540Z,95.79
2023-01-09T01:59:49.965Z,95.77
2023-01-09T02:02:20.556Z,96.37
2023-01-09T02:04:48.756Z,96.62
2023-01-09T02:07:15.152Z,96.80
2023-01-09T02:09:44.509Z,96.52
2023-01-09T02:12:23.580Z,96.84
2023-01-09T02:14:54.778Z,97.21
2023-01-09T02:17:46.356Z,96.80
2023-01-09T02:20:24.835Z,97.13
2023-01-09T02:23:03.597Z,97.40
2023-01-09T02:26:05.615Z,97.06
2023-01-09T02:28:56.232Z,97.59
2023-01-09T02:31:31.313Z,97.82
2023-01-09T02:34:13.908Z,97.49
2023-01-09T02:37:10.419Z,97.43
2023-01-09T02:40:02.076Z,97.35
2023-01-09T02:42:29.714Z,96.94
2023-01-09T02:44:56.095Z,97.17
2023-01-09T02:47:22.437Z,97.49
2023-01-09T02:49:55.131Z,97.17
2023-01-09T02:52:53.349Z,97.27
2023-01-09T02:55:44.235Z,97.58
2023-01-09T02:58:30.155Z,97.19
2023-01-09T03:01:15.339Z,97.24
2023-01-09T03:04:01.195Z,97.55
2023-01-09T03:06:49.268Z,97.95
2023-01-09T03:09:20.343Z,98.02
2023-01-09T03:11:51.911Z,97.87
2023-01-09T03:14:22.682Z,97.16
2023-01-09T03:16:56.603Z,97.95
2023-01-09T03:19:26.904Z,98.58
2023-01-09T03:21:54.893Z,98.88
2023-01-09T03:24:21.313Z,98.89
2023-01-09T03:26:47.905Z,98.69
2023-01-09T03:29:14.314Z,98.89
2023-01-09T03:31:40.772Z,98.71
2023-01-09T03:34:07.281Z,98.83
2023-01-09T03:36:33.862Z,98.55
2023-01-09T03:39:00.323Z,98.93
2023-01-09T03:41:26.716Z,98.68
2023-01-09T03:43:53.096Z,98.79
2023-01-09T03:46:19.448Z,98.83
2023-01-09T03:48:52.059Z,98.98
2023-01-09T03:51:18.471Z,98.54
2023-01-09T03:53:44.841Z,98.49
2023-01-09T03:56:11.237Z,98.04
2023-01-09T03:58:37.614Z,98.27
2023-01-09T04:01:09.267Z,98.17
2023-01-09T04:03:36.116Z,97.91
2023-01-09T04:06:02.491Z,97.41
2023-01-09T04:08:28.875Z,96.95
2023-01-09T04:10:55.302Z,96.85
2023-01-09T04:13:21.731Z,97.39
2023-01-09T04:15:48.422Z,97.45
2023-01-09T04:18:15.050Z,97.08
2023-01-09T04:20:41.812Z,97.33
2023-01-09T04:23:08.243Z,97.18
2023-01-09T04:25:34.714Z,97.21
2023-01-09T04:28:01.172Z,96.12
2023-01-09T04:30:27.569Z,95.29
2023-01-09T04:32:53.977Z,95.53
2023-01-09T04:35:20.668Z,94.92
2023-01-09T04:37:47.533Z,95.27
2023-01-09T04:40:14.272Z,96.19
2023-01-09T04:42:41.440Z,96.00
2023-01-09T04:45:09.949Z,96.19
2023-01-09T04:47:36.351Z,95.84
2023-01-09T04:50:02.859Z,95.28
2023-01-09T04:52:29.280Z,94.36
2023-01-09T04:54:55.750Z,94.07
2023-01-09T04:57:22.405Z,95.37
2023-01-09T04:59:48.843Z,94.80
2023-01-09T05:02:15.274Z,94.32
2023-01-09T05:04:42.805Z,94.42
2023-01-09T05:07:09.300Z,94.75
2023-01-09T05:09:36.166Z,95.05
2023-01-09T05:12:02.879Z,95.01
2023-01-09T05:14:29.423Z,94.91
2023-01-09T05:16:56.184Z,95.08
2023-01-09T05:19:23.726Z,94.76
2023-01-09T05:21:50.412Z,95.01
2023-01-09T05:24:16.969Z,95.27
2023-01-09T05:26:43.422Z,94.98
2023-01-09T05:29:10.315Z,94.60
2023-01-09T05:31:36.888Z,94.50
2023-01-09T05:34:03.418Z,94.53
2023-01-09T05:36:29.882Z,94.64
2023-01-09T05:38:57.869Z,95.00
2023-01-09T05:41:26.102Z,95.12
2023-01-09T05:43:52.580Z,95.11
2023-01-09T05:46:19.049Z,95.79
2023-01-09T05:48:45.595Z,96.54
2023-01-09T05:51:12.670Z,96.64
2023-01-09T05:53:39.437Z,97.09
2023-01-09T05:56:06.219Z,97.25
2023-01-09T05:58:32.635Z,97.87
2023-01-09T06:00:59.351Z,98.26
2023-01-09T06:03:25.873Z,98.09
2023-01-09T06:05:52.261Z,98.49
2023-01-09T06:08:18.740Z,98.92
2023-01-09T06:10:46.111Z,98.14
2023-01-09T06:13:12.594Z,98.07
2023-01-09T06:15:39.019Z,98.56
2023-01-09T06:18:05.610Z,98.84
2023-01-09T06:20:32.068Z,99.61
2023-01-09T06:22:58.530Z,99.14
2023-01-09T06:25:24.964Z,98.92
2023-01-09T06:27:54.266Z,98.54
2023-01-09T06:30:20.982Z,97.98
2023-01-09T06:32:49.389Z,98.11
2023-01-09T06:35:20.347Z,98.50
2023-01-09T06:37:50.179Z,98.64
2023-01-09T06:40:18.101Z,99.12
2023-01-09T06:42:45.567Z,99.12
2023-01-09T06:45:13.137Z,99.49
2023-01-09T06:47:39.878Z,99.49
2023-01-09T06:50:07.188Z,99.53
2023-01-09T06:52:33.538Z,99.52
2023-01-09T06:54:59.928Z,99.54
2023-01-09T06:57:26.305Z,100.00
2023-01-09T06:59:52.863Z,99.94
2023-01-09T07:02:21.495Z,99.87
2023-01-09T07:04:48.323Z,99.66
2023-01-09T07:07:15.297Z,100.00
2023-01-09T07:09:41.758Z,99.51
2023-01-09T07:12:08.138Z,99.22
2023-01-09T07:14:34.594Z,99.75
2023-01-09T07:17:00.987Z,99.72
2023-01-09T07:19:27.545Z,99.65
2023-01-09T07:21:54.019Z,99.82
2023-01-09T07:24:20.429Z,99.84
2023-01-09T07:26:46.905Z,99.82
2023-01-09T07:29:13.278Z,99.39
2023-01-09T07:31:39.761Z,99.99
2023-01-09T07:34:06.257Z,99.93
2023-01-09T07:36:32.679Z,100.00
2023-01-09T07:38:59.133Z,100.00
2023-01-09T07:41:25.581Z,100.00
2023-01-09T07:43:51.962Z,100.00
2023-01-09T07:46:18.744Z,100.00
2023-01-09T07:48:45.220Z,100.00
2023-01-09T07:51:11.807Z,100.00
2023-01-09T07:53:38.277Z,100.00
2023-01-09T07:56:05.062Z,100.00
2023-01-09T07:58:31.571Z,100.00
2023-01-09T08:00:58.123Z,100.00
2023-01-09T08:03:24.662Z,100.00
2023-01-09T08:05:51.670Z,100.00
2023-01-09T08:08:18.157Z,100.00
2023-01-09T08:10:44.557Z,100.00
2023-01-09T08:13:10.986Z,100.00
2023-01-09T08:15:37.688Z,100.00
2023-01-09T08:18:04.234Z,100.00
2023-01-09T08:20:31.234Z,100.00
2023-01-09T08:22:57.653Z,100.00
2023-01-09T08:25:24.650Z,100.00
2023-01-09T08:27:51.119Z,100.00
2023-01-09T08:30:18.241Z,100.00
2023-01-09T08:32:52.227Z,100.00
2023-01-09T08:35:19.008Z,100.00
2023-01-09T08:37:47.059Z,100.00
2023-01-09T08:40:14.560Z,100.00
2023-01-09T08:43:00.210Z,100.00
2023-01-09T08:45:45.433Z,100.00
2023-01-09T08:48:11.876Z,100.00
2023-01-09T08:50:38.335Z,100.00
2023-01-09T08:53:04.811Z,100.00
2023-01-09T08:55:31.279Z,100.00
2023-01-09T08:57:57.675Z,99.94
2023-01-09T09:00:24.954Z,99.66
2023-01-09T09:02:53.115Z,99.77
2023-01-09T09:05:20.911Z,99.67
2023-01-09T09:07:49.137Z,99.67
2023-01-09T09:10:18.698Z,99.69
2023-01-09T09:12:47.692Z,99.31
2023-01-09T09:15:16.337Z,99.04
2023-01-09T09:17:44.517Z,99.26
2023-01-09T09:20:11.818Z,99.02
2023-01-09T09:22:38.358Z,99.09
2023-01-09T09:25:05.317Z,99.27
2023-01-09T09:27:32.749Z,98.36
2023-01-09T09:29:59.268Z,97.72
2023-01-09T09:32:25.768Z,97.91
2023-01-09T09:34:52.223Z,97.35
2023-01-09T09:37:18.736Z,96.90
2023-01-09T09:39:45.186Z,96.57
2023-01-09T09:42:58.195Z,95.59
2023-01-09T09:45:37.353Z,95.73
2023-01-09T09:48:28.559Z,95.96
2023-01-09T09:51:22.493Z,95.25
2023-01-09T09:53:59.922Z,94.43
2023-01-09T09:56:29.852Z,94.39
2023-01-09T09:59:03.607Z,94.07
2023-01-09T10:01:43.063Z,93.43
2023-01-09T10:04:14.167Z,93.84
2023-01-09T10:06:46.897Z,94.16
2023-01-09T10:09:26.299Z,93.19
2023-01-09T10:12:05.981Z,92.97
2023-01-09T10:14:32.631Z,93.61
2023-01-09T10:17:28.758Z,93.50
2023-01-09T10:20:08.711Z,93.14
2023-01-09T10:22:41.627Z,92.71
2023-01-09T10:25:46.883Z,92.43
2023-01-09T10:28:32.955Z,92.57
2023-01-09T10:31:10.168Z,92.19
2023-01-09T10:33:51.980Z,91.91
2023-01-09T10:36:25.893Z,91.73
2023-01-09T10:38:58.950Z,91.39
2023-01-09T10:41:46.775Z,91.06
2023-01-09T10:44:23.682Z,91.95
2023-01-09T10:46:55.292Z,92.46
2023-01-09T10:49:23.933Z,91.60
2023-01-09T10:51:56.517Z,90.64
2023-01-09T10:54:25.830Z,91.54
2023-01-09T10:57:07.380Z,91.10
2023-01-09T10:59:36.598Z,90.65
2023-01-09T11:02:03.601Z,90.63
2023-01-09T11:04:32.493Z,90.87
2023-01-09T11:07:02.987Z,91.49
2023-01-09T11:09:56.515Z,91.59
2023-01-09T11:12:28.861Z,90.89
2023-01-09T11:14:56.509Z,90.54
2023-01-09T11:17:27.024Z,90.54
2023-01-09T11:20:13.897Z,91.04
2023-01-09T11:22:51.606Z,92.15
2023-01-09T11:25:21.151Z,92.77
2023-01-09T11:28:07.014Z,92.45
2023-01-09T11:30:53.726Z,92.47
2023-01-09T11:33:32.356Z,92.36
2023-01-09T11:36:07.847Z,91.89
2023-01-09T11:38:51.051Z,92.36
2023-01-09T11:41:20.615Z,91.75
2023-01-09T11:43:50.308Z,91.72
2023-01-09T11:46:50.454Z,91.49
2023-01-09T11:49:18.539Z,91.29
2023-01-09T11:51:45.061Z,90.46
2023-01-09T11:54:36.032Z,90.71
2023-01-09T11:57:02.605Z,90.12
2023-01-09T11:59:31.180Z,89.53
2023-01-09T12:02:04.661Z,89.13
2023-01-09T12:04:49.862Z,89.25
2023-01-09T12:07:47.451Z,89.01
2023-01-09T12:10:48.014Z,88.89
2023-01-09T12:13:37.899Z,88.72
2023-01-09T12:16:23.271Z,87.72
2023-01-09T12:19:22.669Z,88.37
2023-01-09T12:21:51.581Z,87.07
2023-01-09T12:24:53.221Z,87.13
2023-01-09T12:27:26.407Z,86.49
2023-01-09T12:30:18.254Z,87.34
2023-01-09T12:33:05.722Z,85.54
2023-01-09T12:35:57.332Z,85.35
2023-01-09T12:38:49.082Z,85.89
2023-01-09T12:41:29.480Z,85.84
2023-01-09T12:44:34.286Z,84.84
2023-01-09T12:47:42.346Z,83.97
2023-01-09T12:50:27.941Z,83.10
2023-01-09T12:52:54.736Z,82.77
2023-01-09T12:55:26.631Z,83.39
2023-01-09T12:58:01.806Z,81.90
2023-01-09T13:00:41.089Z,80.97
2023-01-09T13:03:16.627Z,81.44
2023-01-09T13:05:47.110Z,81.71
2023-01-09T13:08:31.935Z,79.42
2023-01-09T13:11:14.789Z,78.62
2023-01-09T13:13:51.630Z,78.80
2023-01-09T13:16:25.629Z,77.66
2023-01-09T13:19:03.932Z,77.79
2023-01-09T13:21:30.997Z,76.91
2023-01-09T13:24:11.472Z,76.34
2023-01-09T13:26:54.000Z,75.42
2023-01-09T13:29:42.668Z,75.64
2023-01-09T13:32:30.548Z,75.47
2023-01-09T13:34:57.621Z,75.49
2023-01-09T13:37:31.776Z,75.27
2023-01-09T13:40:01.524Z,74.64
2023-01-09T13:42:46.409Z,74.47
2023-01-09T13:45:28.243Z,74.71
2023-01-09T13:48:10.863Z,74.54
2023-01-09T13:50:38.713Z,72.27
2023-01-09T13:53:27.061Z,73.64
2023-01-09T13:55:59.774Z,73.65
2023-01-09T13:58:38.326Z,74.29
2023-01-09T14:01:27.398Z,75.13
2023-01-09T14:04:14.662Z,75.47
2023-01-09T14:06:41.370Z,76.20
2023-01-09T14:09:13.143Z,76.16
2023-01-09T14:11:40.134Z,75.10
2023-01-09T14:14:19.728Z,75.37
2023-01-09T14:16:46.367Z,74.67
2023-01-09T14:19:15.911Z,75.74
2023-01-09T14:21:49.633Z,75.60
2023-01-09T14:24:28.657Z,76.71
2023-01-09T14:26:57.864Z,77.13
2023-01-09T14:29:44.692Z,77.54
2023-01-09T14:32:23.595Z,78.50
2023-01-09T14:34:58.071Z,78.47
2023-01-09T14:37:26.145Z,78.65
2023-01-09T14:39:52.839Z,78.43
2023-01-09T14:42:23.707Z,78.27
2023-01-09T14:45:02.504Z,79.09
2023-01-09T14:47:31.846Z,79.58
2023-01-09T14:50:18.530Z,80.29
2023-01-09T14:52:49.826Z,81.12
2023-01-09T14:55:24.442Z,81.11
2023-01-09T14:57:54.781Z,81.04
2023-01-09T15:00:22.696Z,81.75
2023-01-09T15:02:51.436Z,81.97
2023-01-09T15:05:22.359Z,82.32
2023-01-09T15:08:01.883Z,81.48
2023-01-09T15:10:34.800Z,81.69
2023-01-09T15:13:05.573Z,82.19
2023-01-09T15:15:32.086Z,81.74
2023-01-09T15:18:01.857Z,81.39
2023-01-09T15:20:31.011Z,82.68
2023-01-09T15:23:00.801Z,83.29
2023-01-09T15:25:38.802Z,84.37
2023-01-09T15:28:32.676Z,84.74
2023-01-09T15:31:06.263Z,85.12
2023-01-09T15:33:34.397Z,85.69
2023-01-09T15:36:05.268Z,85.80
2023-01-09T15:38:33.027Z,85.35
2023-01-09T15:41:09.190Z,84.75
2023-01-09T15:43:41.278Z,84.12
2023-01-09T15:46:07.991Z,83.72
2023-01-09T15:48:35.676Z,83.85
2023-01-09T15:51:17.504Z,83.95
2023-01-09T15:53:50.200Z,84.28
2023-01-09T15:56:33.306Z,84.23
2023-01-09T15:59:00.794Z,83.99
2023-01-09T16:01:31.179Z,83.72
2023-01-09T16:04:03.428Z,84.03
2023-01-09T16:06:32.682Z,84.50
2023-01-09T16:09:00.469Z,84.15
2023-01-09T16:11:30.206Z,83.79
2023-01-09T16:14:13.680Z,84.42
2023-01-09T16:16:41.201Z,85.19
2023-01-09T16:19:30.684Z,85.42
2023-01-09T16:21:59.045Z,86.14
2023-01-09T16:24:41.033Z,85.92
2023-01-09T16:27:33.282Z,85.98
2023-01-09T16:30:01.622Z,86.16
2023-01-09T16:32:31.051Z,86.33
2023-01-09T16:35:07.690Z,86.21
2023-01-09T16:37:44.725Z,86.09
2023-01-09T16:40:22.059Z,85.99
2023-01-09T16:43:03.369Z,86.45
2023-01-09T16:45:35.198Z,85.67
2023-01-09T16:48:19.690Z,85.51
2023-01-09T16:50:47.102Z,85.93
2023-01-09T16:53:23.820Z,86.42
2023-01-09T16:55:52.426Z,86.20
2023-01-09T16:58:24.593Z,87.05
2023-01-09T17:00:51.267Z,87.08
2023-01-09T17:03:17.992Z,87.46
2023-01-09T17:05:44.639Z,87.17
2023-01-09T17:08:29.093Z,86.32
2023-01-09T17:10:56.984Z,86.83
2023-01-09T17:13:24.568Z,86.87
2023-01-09T17:15:52.857Z,87.27
2023-01-09T17:18:21.867Z,87.42
2023-01-09T17:20:54.286Z,87.69
2023-01-09T17:23:22.372Z,87.86
2023-01-09T17:26:12.829Z,88.09
2023-01-09T17:28:46.500Z,88.39
2023-01-09T17:31:13.167Z,88.50
2023-01-09T17:33:40.823Z,88.62
2023-01-09T17:36:31.875Z,88.84
2023-01-09T17:38:59.329Z,88.89
2023-01-09T17:41:30.741Z,88.81
2023-01-09T17:43:58.663Z,88.88
2023-01-09T17:46:34.425Z,88.73
2023-01-09T17:49:02.669Z,89.15
2023-01-09T17:51:29.422Z,89.33
2023-01-09T17:53:56.417Z,89.61
2023-01-09T17:56:29.297Z,89.91
2023-01-09T17:58:56.284Z,90.02
2023-01-09T18:01:22.799Z,89.97
2023-01-09T18:03:50.462Z,89.71
2023-01-09T18:06:19.779Z,89.27
2023-01-09T18:08:46.783Z,89.33
2023-01-09T18:11:19.300Z,90.04
2023-01-09T18:13:46.696Z,90.11
2023-01-09T18:16:18.422Z,89.89
2023-01-09T18:18:45.519Z,89.42
2023-01-09T18:21:16.209Z,89.79
2023-01-09T18:23:42.718Z,90.11
2023-01-09T18:26:10.656Z,90.88
2023-01-09T18:28:38.174Z,90.47
2023-01-09T18:31:05.520Z,90.43
2023-01-09T18:33:32.224Z,90.48
2023-01-09T18:36:08.671Z,90.16
2023-01-09T18:38:35.697Z,90.68
2023-01-09T18:41:03.711Z,90.82
2023-01-09T18:43:31.042Z,91.11
2023-01-09T18:45:57.454Z,90.96
2023-01-09T18:48:23.994Z,91.17
2023-01-09T18:51:05.236Z,91.64
2023-01-09T18:53:32.037Z,91.90
2023-01-09T18:56:02.875Z,92.44
2023-01-09T18:58:29.550Z,91.19
2023-01-09T19:00:56.110Z,90.32
2023-01-09T19:03:22.555Z,90.29
2023-01-09T19:05:49.003Z,90.24
2023-01-09T19:08:15.380Z,89.79
2023-01-09T19:10:41.830Z,89.41
2023-01-09T19:13:08.306Z,88.79
2023-01-09T19:15:34.767Z,88.99
2023-01-09T19:18:01.372Z,88.69
2023-01-09T19:20:28.123Z,88.30
2023-01-09T19:22:56.816Z,89.04
2023-01-09T19:25:23.339Z,87.90
2023-01-09T19:27:50.056Z,88.17
2023-01-09T19:30:25.479Z,88.24
2023-01-09T19:32:52.007Z,90.29
2023-01-09T19:35:18.547Z,90.60
2023-01-09T19:37:44.945Z,90.93
2023-01-09T19:40:11.903Z,91.30
2023-01-09T19:42:38.321Z,90.94
2023-01-09T19:45:05.333Z,90.59
2023-01-09T19:47:38.013Z,91.89
2023-01-09T19:50:05.772Z,92.03
2023-01-09T19:52:32.202Z,92.60
2023-01-09T19:54:58.621Z,92.79
2023-01-09T19:57:25.039Z,93.35
2023-01-09T19:59:52.638Z,93.03
2023-01-09T20:04:45.573Z,92.49
2023-01-09T20:07:11.986Z,92.52
2023-01-09T20:09:38.425Z,92.81
2023-01-09T20:12:05.334Z,93.00
2023-01-09T20:14:31.773Z,93.41
2023-01-09T20:17:00.937Z,93.29
2023-01-09T20:19:28.501Z,93.14
2023-01-09T20:21:54.891Z,92.37
2023-01-09T20:24:21.255Z,92.04
2023-01-09T20:26:47.706Z,91.66
2023-01-09T20:29:14.152Z,91.39
2023-01-09T20:31:40.685Z,91.69
2023-01-09T20:34:07.187Z,91.90
2023-01-09T20:36:34.815Z,92.53
2023-01-09T20:39:04.692Z,92.08
2023-01-09T20:41:31.491Z,91.40
2023-01-09T20:44:00.399Z,91.25
2023-01-09T20:46:29.488Z,91.22
2023-01-09T20:49:01.757Z,90.71
2023-01-09T20:51:28.111Z,90.77
2023-01-09T20:53:58.395Z,90.61
2023-01-09T20:56:26.680Z,90.46
2023-01-09T20:58:53.490Z,90.10
2023-01-09T21:01:21.783Z,90.04
2023-01-09T21:03:49.324Z,89.95
2023-01-09T21:06:17.399Z,90.06
2023-01-09T21:08:45.463Z,90.12
2023-01-09T21:11:12.078Z,89.95
2023-01-09T21:13:39.318Z,90.16
2023-01-09T21:16:10.151Z,90.25
2023-01-09T21:18:37.249Z,90.54
2023-01-09T21:21:09.903Z,90.14
2023-01-09T21:23:36.751Z,90.00
2023-01-09T21:26:09.679Z,89.99
2023-01-09T21:28:55.303Z,90.22
2023-01-09T21:31:25.986Z,90.24
2023-01-09T21:33:54.422Z,90.47
2023-01-09T21:36:21.517Z,90.31
2023-01-09T21:38:52.486Z,90.67
2023-01-09T21:41:39.784Z,91.20
2023-01-09T21:44:25.160Z,90.48
2023-01-09T21:46:51.687Z,90.41
2023-01-09T21:49:19.572Z,90.84
2023-01-09T21:51:46.311Z,91.30
2023-01-09T21:54:12.744Z,91.24
2023-01-09T21:56:39.222Z,92.14
2023-01-09T21:59:05.704Z,91.91
2023-01-09T22:01:32.196Z,92.38
2023-01-09T22:03:59.165Z,92.29
2023-01-09T22:06:25.980Z,93.14
2023-01-09T22:08:52.588Z,93.67
2023-01-09T22:11:18.993Z,93.63
2023-01-09T22:13:49.805Z,92.64
2023-01-09T22:16:17.286Z,92.10
2023-01-09T22:18:43.765Z,92.02
2023-01-09T22:21:10.260Z,91.97
2023-01-09T22:23:36.725Z,91.81
2023-01-09T22:26:14.606Z,91.97
2023-01-09T22:28:42.018Z,92.29
2023-01-09T22:31:09.887Z,92.74
2023-01-09T22:33:40.624Z,93.04
2023-01-09T22:36:10.175Z,93.29
2023-01-09T22:38:37.227Z,92.82
2023-01-09T22:41:04.387Z,92.16
2023-01-09T22:43:31.739Z,91.89
2023-01-09T22:46:06.389Z,91.83
2023-01-09T22:48:34.556Z,91.66
2023-01-09T22:51:02.331Z,92.42
2023-01-09T22:53:30.326Z,93.06
2023-01-09T22:56:00.753Z,92.71
2023-01-09T22:58:30.414Z,92.58
2023-01-09T23:00:57.135Z,92.19
2023-01-09T23:03:24.407Z,91.54
2023-01-09T23:06:07.184Z,89.84
2023-01-09T23:08:35.146Z,90.38
2023-01-09T23:11:03.345Z,89.89
2023-01-09T23:13:29.848Z,89.85
2023-01-09T23:15:56.322Z,89.24
2023-01-09T23:18:23.175Z,88.50
2023-01-09T23:20:54.051Z,88.12
2023-01-09T23:23:21.941Z,88.13
2023-01-09T23:25:49.920Z,88.19
2023-01-09T23:28:16.504Z,88.76
2023-01-09T23:30:43.204Z,88.10
2023-01-09T23:33:09.621Z,87.29
2023-01-09T23:35:36.053Z,86.70
2023-01-09T23:38:02.476Z,86.18
2023-01-09T23:40:29.120Z,86.50
2023-01-09T23:43:10.815Z,86.69
2023-01-09T23:45:39.280Z,86.55
2023-01-09T23:48:07.086Z,86.21
2023-01-09T23:50:33.944Z,86.09
2023-01-09T23:53:00.619Z,85.74
2023-01-09T23:55:27.774Z,85.22
2023-01-09T23:57:54.660Z,85.28
